Terminal Aerodrome Forecast
Issued by NWS

Home | Current Version | Previous Version | Text Only | Print | Product List | Glossary On
Versions: 1 2 3 4 5 6 7 8 9 10 11 12 13 14 15 16 17 18 19 20 21 22 23 24 25 26 27 28 29 30 31 32 33 34 35 36 37 38 39
707
FTUS41 KOKX 182044 AAC
TAFTEB
TAF AMD
KTEB 182044Z 1821/1918 36007KT P6SM OVC012
      TEMPO 1821/1822 5SM BR
     FM182300 34005KT P6SM BKN020 OVC030
     FM190500 33003KT P6SM SCT025 BKN050
     FM191200 31005KT P6SM FEW040 SCT100=

USA.gov is the U.S. government's official web portal to all federal, state and local government web resources and services.